Terminal Aerodrome Forecast
Issued by NWS Rapid City, SD

Home | Current Version | Previous Version | Graphics & Text | Print | Product List | Glossary On
Versions: 1 2 3 4 5 6 7 8 9 10 11 12 13 14 15 16 17 18
000
FTUS43 KUNR 252300
TAFRAP
TAF
KRAP 252324Z 2600/2624 02018KT 4SM -SN BR SCT014 OVC022
      TEMPO 2600/2603 1SM -SN BR VV014
     FM260300 02015KT 5SM -SN OVC015
     FM260900 02014KT P6SM OVC015
     FM261700 03014KT P6SM BKN250=

USA.gov is the U.S. government's official web portal to all federal, state and local government web resources and services.